createdAt,value
2022-10-07T00:01:53.513Z,4.90
2022-10-07T00:04:20.107Z,5.03
2022-10-07T00:06:46.797Z,4.93
2022-10-07T00:09:13.347Z,4.57
2022-10-07T00:11:40.231Z,4.87
2022-10-07T00:14:10.168Z,5.03
2022-10-07T00:16:39.713Z,5.10
2022-10-07T00:19:08.896Z,5.17
2022-10-07T00:21:36.815Z,5.03
2022-10-07T00:24:04.436Z,5.20
2022-10-07T00:26:33.009Z,5.10
2022-10-07T00:28:59.909Z,5.00
2022-10-07T00:31:28.793Z,5.23
2022-10-07T00:33:56.402Z,5.77
2022-10-07T00:36:25.756Z,5.20
2022-10-07T00:39:00.649Z,5.40
2022-10-07T00:41:32.711Z,5.00
2022-10-07T00:44:00.328Z,5.20
2022-10-07T00:46:34.050Z,4.87
2022-10-07T00:49:03.741Z,5.10
2022-10-07T00:51:32.439Z,5.20
2022-10-07T00:54:03.519Z,5.70
2022-10-07T00:56:30.819Z,5.10
2022-10-07T00:58:59.189Z,5.10
2022-10-07T01:01:26.699Z,5.20
2022-10-07T01:03:54.282Z,5.37
2022-10-07T01:06:20.834Z,5.13
2022-10-07T01:08:48.827Z,4.90
2022-10-07T01:11:18.049Z,5.20
2022-10-07T01:14:23.777Z,5.20
2022-10-07T01:17:13.056Z,4.50
2022-10-07T01:19:59.917Z,4.80
2022-10-07T01:22:48.315Z,5.10
2022-10-07T01:25:41.277Z,5.00
2022-10-07T01:28:13.187Z,5.10
2022-10-07T01:30:44.904Z,4.70
2022-10-07T01:33:15.270Z,5.03
2022-10-07T01:35:43.804Z,4.80
2022-10-07T01:38:12.030Z,4.90
2022-10-07T01:40:48.288Z,4.87
2022-10-07T01:43:18.118Z,5.10
2022-10-07T01:45:44.729Z,4.63
2022-10-07T01:48:11.334Z,4.87
2022-10-07T01:50:38.306Z,4.77
2022-10-07T01:53:12.810Z,5.10
2022-10-07T01:55:58.502Z,4.53
2022-10-07T01:58:36.043Z,5.00
2022-10-07T02:01:13.208Z,5.00
2022-10-07T02:04:19.023Z,5.40
2022-10-07T02:07:07.622Z,4.80
2022-10-07T02:09:38.858Z,4.80
2022-10-07T02:12:18.124Z,4.83
2022-10-07T02:15:13.512Z,4.93
2022-10-07T02:17:46.872Z,4.90
2022-10-07T02:20:15.004Z,5.03
2022-10-07T02:22:42.899Z,4.67
2022-10-07T02:25:10.399Z,4.87
2022-10-07T02:27:38.574Z,5.07
2022-10-07T02:30:12.168Z,4.80
2022-10-07T02:32:42.487Z,4.97
2022-10-07T02:35:18.946Z,5.10
2022-10-07T02:37:48.017Z,4.83
2022-10-07T02:40:15.025Z,5.00
2022-10-07T02:43:01.149Z,5.10
2022-10-07T02:45:34.942Z,4.67
2022-10-07T02:48:15.081Z,5.83
2022-10-07T02:50:44.134Z,5.00
2022-10-07T02:53:13.034Z,5.37
2022-10-07T02:55:40.368Z,5.23
2022-10-07T02:58:09.174Z,5.33
2022-10-07T03:00:39.470Z,5.80
2022-10-07T03:03:07.948Z,5.23
2022-10-07T03:05:49.273Z,5.30
2022-10-07T03:08:16.257Z,5.67
2022-10-07T03:10:43.244Z,5.30
2022-10-07T03:13:12.205Z,5.53
2022-10-07T03:15:42.758Z,5.20
2022-10-07T03:18:26.670Z,5.53
2022-10-07T03:21:00.970Z,5.70
2022-10-07T03:23:31.773Z,5.57
2022-10-07T03:25:59.464Z,5.20
2022-10-07T03:28:28.149Z,5.13
2022-10-07T03:30:55.329Z,5.47
2022-10-07T03:33:25.732Z,4.83
2022-10-07T03:35:53.850Z,5.17
2022-10-07T03:38:21.857Z,5.33
2022-10-07T03:40:49.305Z,5.40
2022-10-07T03:43:16.227Z,4.60
2022-10-07T03:45:44.667Z,4.60
2022-10-07T03:48:12.281Z,4.40
2022-10-07T03:50:39.676Z,4.83
2022-10-07T03:53:06.365Z,5.03
2022-10-07T03:55:33.006Z,4.77
2022-10-07T03:57:59.975Z,5.20
2022-10-07T04:00:28.753Z,4.90
2022-10-07T04:02:57.145Z,4.90
2022-10-07T04:05:24.336Z,5.93
2022-10-07T04:07:52.255Z,5.47
2022-10-07T04:10:20.211Z,5.20
2022-10-07T04:12:48.885Z,5.37
2022-10-07T04:15:15.667Z,5.70
2022-10-07T04:17:45.269Z,5.57
2022-10-07T04:20:15.246Z,5.30
2022-10-07T04:22:43.043Z,5.57
2022-10-07T04:25:29.943Z,5.30
2022-10-07T04:27:58.658Z,5.87
2022-10-07T04:30:28.909Z,5.60
2022-10-07T04:32:55.465Z,6.03
2022-10-07T04:35:23.918Z,6.03
2022-10-07T04:37:53.729Z,6.00
2022-10-07T04:40:23.701Z,8.07
2022-10-07T04:43:29.261Z,6.83
2022-10-07T04:46:06.381Z,7.07
2022-10-07T04:48:35.889Z,7.17
2022-10-07T04:51:10.450Z,6.97
2022-10-07T04:53:39.437Z,7.23
2022-10-07T04:56:08.850Z,6.50
2022-10-07T04:58:36.218Z,6.43
2022-10-07T05:01:09.268Z,6.50
2022-10-07T05:03:39.905Z,6.40
2022-10-07T05:06:08.868Z,6.50
2022-10-07T05:08:36.945Z,6.20
2022-10-07T05:11:05.277Z,5.93
2022-10-07T05:13:39.745Z,6.60
2022-10-07T05:16:09.836Z,6.00
2022-10-07T05:18:39.397Z,6.20
2022-10-07T05:21:09.715Z,5.93
2022-10-07T05:23:40.305Z,6.23
2022-10-07T05:26:14.197Z,6.13
2022-10-07T05:28:45.630Z,6.20
2022-10-07T05:31:15.815Z,6.47
2022-10-07T05:33:47.174Z,8.33
2022-10-07T05:36:14.497Z,7.07
2022-10-07T05:38:42.345Z,6.97
2022-10-07T05:41:11.261Z,6.03
2022-10-07T05:43:42.198Z,6.30
2022-10-07T05:46:14.738Z,5.90
2022-10-07T05:48:47.174Z,6.00
2022-10-07T05:51:14.317Z,5.80
2022-10-07T05:53:42.911Z,6.60
2022-10-07T05:56:12.658Z,7.07
2022-10-07T05:58:39.678Z,7.10
2022-10-07T06:01:14.304Z,6.47
2022-10-07T06:03:43.051Z,6.57
2022-10-07T06:06:10.641Z,7.43
2022-10-07T06:08:37.551Z,7.20
2022-10-07T06:11:24.640Z,7.90
2022-10-07T06:13:53.104Z,7.80
2022-10-07T06:16:20.060Z,6.77
2022-10-07T06:18:50.500Z,6.83
2022-10-07T06:21:19.024Z,7.47
2022-10-07T06:23:51.996Z,7.27
2022-10-07T06:26:23.065Z,7.37
2022-10-07T06:28:50.450Z,6.80
2022-10-07T06:31:25.910Z,7.43
2022-10-07T06:33:58.201Z,6.80
2022-10-07T06:36:25.477Z,7.20
2022-10-07T06:38:55.628Z,7.10
2022-10-07T06:41:27.251Z,6.80
2022-10-07T06:44:06.869Z,6.73
2022-10-07T06:46:34.553Z,6.90
2022-10-07T06:49:01.247Z,6.90
2022-10-07T06:51:28.029Z,7.20
2022-10-07T06:53:58.038Z,7.33
2022-10-07T06:56:26.217Z,7.17
2022-10-07T06:58:53.066Z,6.83
2022-10-07T07:01:29.430Z,7.10
2022-10-07T07:03:56.458Z,7.57
2022-10-07T07:06:23.860Z,8.07
2022-10-07T07:08:51.307Z,8.27
2022-10-07T07:11:37.092Z,10.17
2022-10-07T07:14:14.166Z,10.30
2022-10-07T07:16:45.488Z,10.77
2022-10-07T07:19:12.538Z,10.63
2022-10-07T07:21:41.081Z,10.73
2022-10-07T07:24:10.960Z,11.90
2022-10-07T07:26:40.154Z,11.33
2022-10-07T07:29:08.466Z,12.57
2022-10-07T07:31:41.044Z,11.77
2022-10-07T07:34:13.827Z,11.77
2022-10-07T07:36:47.617Z,11.27
2022-10-07T07:39:17.458Z,12.40
2022-10-07T07:41:50.751Z,14.73
2022-10-07T07:44:19.509Z,17.33
2022-10-07T07:46:51.114Z,17.73
2022-10-07T07:49:21.081Z,18.07
2022-10-07T07:51:47.993Z,18.77
2022-10-07T07:54:20.785Z,19.40
2022-10-07T07:56:48.741Z,19.53
2022-10-07T07:59:17.283Z,18.60
2022-10-07T08:01:45.485Z,18.47
2022-10-07T08:04:13.763Z,18.10
2022-10-07T08:06:40.434Z,17.70
2022-10-07T08:09:07.562Z,17.33
2022-10-07T08:11:35.482Z,17.70
2022-10-07T08:14:03.558Z,17.10
2022-10-07T08:16:33.201Z,17.60
2022-10-07T08:19:00.697Z,16.00
2022-10-07T08:21:32.862Z,16.27
2022-10-07T08:24:02.496Z,15.53
2022-10-07T08:26:34.245Z,14.00
2022-10-07T08:29:04.641Z,13.73
2022-10-07T08:31:31.555Z,14.23
2022-10-07T08:33:59.798Z,13.03
2022-10-07T08:36:28.482Z,10.73
2022-10-07T08:38:55.021Z,10.03
2022-10-07T08:41:33.924Z,9.67
2022-10-07T08:44:17.690Z,9.87
2022-10-07T08:47:17.950Z,11.33
2022-10-07T08:50:04.637Z,10.33
2022-10-07T08:52:35.497Z,11.13
2022-10-07T08:55:02.419Z,10.33
2022-10-07T08:57:37.256Z,9.60
2022-10-07T09:00:07.023Z,8.37
2022-10-07T09:03:07.453Z,7.80
2022-10-07T09:05:39.043Z,10.20
2022-10-07T09:08:12.744Z,9.80
2022-10-07T09:11:15.442Z,10.27
2022-10-07T09:13:51.083Z,9.20
2022-10-07T09:16:41.185Z,10.70
2022-10-07T09:19:13.396Z,9.57
2022-10-07T09:21:44.841Z,10.50
2022-10-07T09:24:20.453Z,9.03
2022-10-07T09:26:47.678Z,9.37
2022-10-07T09:29:14.209Z,8.53
2022-10-07T09:31:40.773Z,8.70
2022-10-07T09:34:19.465Z,8.47
2022-10-07T09:37:09.063Z,7.23
2022-10-07T09:39:35.642Z,7.73
2022-10-07T09:42:06.787Z,8.20
2022-10-07T09:44:33.568Z,8.33
2022-10-07T09:47:13.893Z,7.80
2022-10-07T09:49:45.247Z,7.80
2022-10-07T09:52:27.367Z,8.63
2022-10-07T09:54:56.213Z,8.20
2022-10-07T09:57:25.694Z,8.37
2022-10-07T09:59:52.547Z,8.57
2022-10-07T10:02:22.507Z,9.07
2022-10-07T10:04:54.761Z,8.10
2022-10-07T10:07:25.358Z,8.20
2022-10-07T10:09:54.108Z,8.63
2022-10-07T10:12:23.997Z,9.30
2022-10-07T10:14:58.780Z,8.10
2022-10-07T10:17:37.323Z,8.60
2022-10-07T10:20:46.194Z,7.50
2022-10-07T10:23:34.630Z,8.30
2022-10-07T10:26:29.362Z,8.03
2022-10-07T10:29:05.617Z,7.77
2022-10-07T10:32:01.148Z,7.60
2022-10-07T10:34:57.654Z,7.53
2022-10-07T10:37:43.265Z,8.93
2022-10-07T10:40:22.231Z,7.93
2022-10-07T10:42:54.662Z,8.67
2022-10-07T10:45:32.355Z,8.87
2022-10-07T10:48:11.283Z,7.97
2022-10-07T10:50:38.210Z,9.00
2022-10-07T10:53:24.483Z,8.43
2022-10-07T10:56:06.043Z,9.37
2022-10-07T10:58:52.931Z,9.03
2022-10-07T11:01:32.850Z,9.47
2022-10-07T11:04:26.116Z,8.77
2022-10-07T11:07:00.649Z,8.70
2022-10-07T11:09:43.501Z,9.40
2022-10-07T11:12:40.047Z,9.00
2022-10-07T11:15:20.453Z,9.20
2022-10-07T11:17:49.901Z,9.53
2022-10-07T11:20:21.846Z,9.13
2022-10-07T11:22:53.497Z,9.90
2022-10-07T11:25:25.895Z,9.23
2022-10-07T11:27:53.570Z,9.60
2022-10-07T11:30:23.249Z,9.10
2022-10-07T11:32:56.043Z,9.33
2022-10-07T11:35:38.075Z,9.33
2022-10-07T11:38:10.522Z,8.97
2022-10-07T11:40:43.318Z,9.17
2022-10-07T11:43:33.443Z,7.93
2022-10-07T11:46:11.501Z,7.90
2022-10-07T11:48:45.431Z,8.03
2022-10-07T11:51:40.971Z,7.80
2022-10-07T11:54:14.265Z,6.93
2022-10-07T11:56:50.661Z,7.50
2022-10-07T11:59:32.145Z,6.27
2022-10-07T12:01:58.819Z,6.10
2022-10-07T12:04:36.701Z,6.20
2022-10-07T12:07:38.376Z,6.00
2022-10-07T12:10:28.586Z,5.37
2022-10-07T12:13:01.168Z,5.23
2022-10-07T12:15:34.927Z,5.10
2022-10-07T12:18:04.416Z,4.97
2022-10-07T12:20:34.584Z,4.83
2022-10-07T12:23:19.778Z,4.57
2022-10-07T12:25:50.691Z,4.80
2022-10-07T12:28:40.636Z,4.63
2022-10-07T12:31:44.638Z,4.90
2022-10-07T12:34:11.422Z,4.70
2022-10-07T12:36:43.080Z,4.23
2022-10-07T12:39:36.405Z,4.20
2022-10-07T12:42:06.368Z,4.90
2022-10-07T12:44:38.513Z,4.63
2022-10-07T12:47:13.901Z,4.18
2022-10-07T12:49:49.770Z,4.43
2022-10-07T12:52:37.997Z,4.40
2022-10-07T12:55:16.209Z,4.25
2022-10-07T12:57:49.210Z,4.60
2022-10-07T13:00:18.334Z,4.15
2022-10-07T13:02:53.721Z,4.65
2022-10-07T13:05:51.161Z,4.30
2022-10-07T13:09:02.821Z,4.60
2022-10-07T13:11:39.222Z,4.88
2022-10-07T13:14:18.440Z,4.28
2022-10-07T13:16:53.183Z,4.05
2022-10-07T13:19:19.906Z,4.65
2022-10-07T13:21:51.110Z,4.45
2022-10-07T13:24:24.229Z,4.50
2022-10-07T13:26:52.212Z,4.70
2022-10-07T13:29:27.494Z,4.57
2022-10-07T13:32:07.786Z,4.53
2022-10-07T13:34:34.675Z,4.70
2022-10-07T13:37:01.725Z,4.63
2022-10-07T13:39:30.453Z,4.53
2022-10-07T13:42:00.013Z,4.55
2022-10-07T13:44:29.502Z,4.40
2022-10-07T13:47:06.822Z,4.38
2022-10-07T13:49:36.733Z,4.68
2022-10-07T13:52:05.967Z,4.50
2022-10-07T13:54:33.974Z,4.40
2022-10-07T13:57:02.331Z,4.70
2022-10-07T13:59:29.229Z,4.07
2022-10-07T14:01:58.279Z,4.45
2022-10-07T14:04:27.017Z,4.53
2022-10-07T14:06:59.968Z,4.07
2022-10-07T14:09:32.337Z,4.10
2022-10-07T14:12:19.900Z,4.40
2022-10-07T14:14:49.198Z,4.20
2022-10-07T14:17:27.353Z,4.10
2022-10-07T14:19:59.203Z,4.05
2022-10-07T14:22:30.307Z,4.43
2022-10-07T14:25:00.511Z,3.90
2022-10-07T14:27:54.622Z,3.80
2022-10-07T14:30:29.763Z,4.10
2022-10-07T14:33:30.151Z,4.07
2022-10-07T14:36:32.132Z,3.97
2022-10-07T14:39:03.398Z,4.20
2022-10-07T14:41:30.463Z,3.92
2022-10-07T14:44:00.238Z,3.90
2022-10-07T14:46:28.950Z,4.15
2022-10-07T14:48:55.710Z,3.90
2022-10-07T14:51:27.049Z,3.92
2022-10-07T14:53:57.164Z,4.10
2022-10-07T14:56:28.223Z,4.47
2022-10-07T14:58:55.914Z,4.07
2022-10-07T15:01:23.509Z,4.00
2022-10-07T15:03:50.448Z,5.20
2022-10-07T15:06:18.175Z,4.80
2022-10-07T15:08:45.278Z,4.50
2022-10-07T15:11:16.197Z,4.87
2022-10-07T15:13:49.851Z,4.60
2022-10-07T15:16:36.952Z,4.73
2022-10-07T15:19:04.730Z,4.20
2022-10-07T15:21:31.572Z,4.25
2022-10-07T15:23:58.187Z,4.33
2022-10-07T15:26:25.250Z,4.20
2022-10-07T15:28:56.572Z,4.87
2022-10-07T15:31:26.607Z,4.40
2022-10-07T15:33:57.662Z,4.90
2022-10-07T15:36:33.408Z,4.60
2022-10-07T15:39:01.999Z,4.80
2022-10-07T15:41:32.657Z,4.83
2022-10-07T15:44:00.573Z,4.80
2022-10-07T15:46:27.980Z,4.50
2022-10-07T15:48:59.166Z,4.73
2022-10-07T15:51:27.011Z,5.10
2022-10-07T15:53:54.390Z,5.17
2022-10-07T15:56:21.131Z,5.37
2022-10-07T15:58:47.869Z,5.43
2022-10-07T16:01:15.459Z,5.30
2022-10-07T16:03:44.695Z,5.60
2022-10-07T16:06:17.672Z,5.20
2022-10-07T16:08:44.359Z,5.30
2022-10-07T16:11:11.816Z,5.23
2022-10-07T16:13:40.470Z,5.23
2022-10-07T16:16:12.495Z,5.17
2022-10-07T16:18:41.066Z,5.50
2022-10-07T16:21:09.717Z,5.47
2022-10-07T16:23:37.719Z,5.80
2022-10-07T16:26:08.958Z,5.90
2022-10-07T16:28:58.226Z,8.87
2022-10-07T16:31:25.015Z,13.83
2022-10-07T16:33:52.523Z,10.30
2022-10-07T16:36:20.794Z,17.47
2022-10-07T16:38:48.108Z,14.50
2022-10-07T16:41:14.921Z,7.33
2022-10-07T16:43:41.520Z,12.80
2022-10-07T16:46:11.301Z,9.80
2022-10-07T16:48:39.557Z,17.50
2022-10-07T16:51:13.543Z,11.13
2022-10-07T16:53:41.210Z,8.50
2022-10-07T16:56:08.134Z,8.40
2022-10-07T16:58:37.502Z,17.03
2022-10-07T17:01:06.153Z,8.60
2022-10-07T17:03:34.212Z,9.83
2022-10-07T17:06:00.827Z,16.73
2022-10-07T17:08:29.449Z,15.60
2022-10-07T17:10:55.982Z,12.43
2022-10-07T17:13:22.607Z,15.77
2022-10-07T17:15:52.531Z,20.00
2022-10-07T17:18:19.901Z,9.67
2022-10-07T17:20:50.636Z,12.73
2022-10-07T17:23:17.765Z,13.93
2022-10-07T17:25:47.483Z,9.20
2022-10-07T17:28:14.435Z,7.50
2022-10-07T17:30:41.814Z,7.40
2022-10-07T17:33:08.382Z,8.07
2022-10-07T17:35:35.108Z,8.40
2022-10-07T17:38:02.555Z,10.37
2022-10-07T17:40:30.583Z,13.27
2022-10-07T17:42:59.644Z,76.90
2022-10-07T17:45:26.267Z,75.30
2022-10-07T17:47:54.485Z,48.13
2022-10-07T17:50:21.056Z,10.37
2022-10-07T17:52:47.731Z,8.67
2022-10-07T17:55:14.342Z,8.63
2022-10-07T17:57:42.226Z,25.20
2022-10-07T18:00:09.287Z,10.97
2022-10-07T18:02:39.867Z,8.30
2022-10-07T18:05:07.368Z,8.33
2022-10-07T18:07:35.153Z,8.40
2022-10-07T18:10:02.086Z,8.23
2022-10-07T18:12:47.271Z,9.33
2022-10-07T18:15:19.953Z,9.33
2022-10-07T18:17:51.006Z,9.63
2022-10-07T18:20:28.037Z,8.53
2022-10-07T18:22:55.761Z,10.67
2022-10-07T18:25:22.776Z,8.60
2022-10-07T18:27:49.704Z,8.60
2022-10-07T18:30:16.463Z,7.80
2022-10-07T18:32:43.119Z,8.13
2022-10-07T18:35:09.788Z,7.97
2022-10-07T18:37:37.388Z,8.30
2022-10-07T18:40:04.340Z,7.60
2022-10-07T18:42:30.933Z,7.50
2022-10-07T18:44:57.565Z,8.57
2022-10-07T18:47:24.144Z,8.07
2022-10-07T18:49:51.853Z,7.70
2022-10-07T18:52:18.577Z,8.53
2022-10-07T18:54:45.130Z,8.03
2022-10-07T18:57:11.726Z,7.77
2022-10-07T18:59:38.298Z,8.40
2022-10-07T19:02:05.002Z,7.83
2022-10-07T19:04:31.793Z,8.17
2022-10-07T19:06:58.570Z,8.23
2022-10-07T19:09:26.362Z,8.73
2022-10-07T19:11:52.964Z,8.50
2022-10-07T19:14:20.103Z,8.90
2022-10-07T19:16:49.327Z,8.60
2022-10-07T19:19:18.810Z,9.90
2022-10-07T19:21:47.480Z,18.83
2022-10-07T19:24:15.514Z,10.90
2022-10-07T19:26:45.782Z,9.53
2022-10-07T19:29:13.506Z,9.93
2022-10-07T19:31:43.543Z,15.27
2022-10-07T19:34:12.272Z,13.13
2022-10-07T19:36:40.386Z,9.53
2022-10-07T19:39:07.149Z,8.87
2022-10-07T19:41:34.901Z,8.40
2022-10-07T19:44:02.142Z,8.17
2022-10-07T19:46:30.484Z,8.20
2022-10-07T19:48:58.862Z,9.87
2022-10-07T19:51:27.050Z,8.73
2022-10-07T19:53:53.660Z,8.60
2022-10-07T19:56:22.380Z,9.20
2022-10-07T19:58:50.292Z,9.87
2022-10-07T20:01:21.118Z,17.27
2022-10-07T20:03:48.747Z,21.87
2022-10-07T20:06:15.790Z,14.97
2022-10-07T20:08:44.527Z,37.50
2022-10-07T20:11:11.776Z,22.00
2022-10-07T20:13:39.279Z,20.07
2022-10-07T20:16:12.851Z,10.60
2022-10-07T20:18:44.018Z,8.77
2022-10-07T20:21:13.223Z,9.17
2022-10-07T20:23:41.239Z,9.00
2022-10-07T20:26:10.491Z,9.60
2022-10-07T20:28:40.545Z,10.00
2022-10-07T20:31:09.288Z,10.10
2022-10-07T20:33:39.406Z,8.00
2022-10-07T20:36:06.952Z,7.83
2022-10-07T20:38:53.447Z,8.47
2022-10-07T20:41:39.772Z,8.80
2022-10-07T20:44:06.442Z,8.30
2022-10-07T20:46:33.106Z,8.70
2022-10-07T20:49:00.209Z,8.97
2022-10-07T20:51:27.550Z,8.60
2022-10-07T20:53:54.175Z,9.20
2022-10-07T20:56:20.798Z,8.97
2022-10-07T20:58:47.340Z,8.90
2022-10-07T21:01:14.071Z,9.47
2022-10-07T21:03:40.914Z,8.87
2022-10-07T21:06:07.768Z,9.07
2022-10-07T21:08:34.297Z,9.30
2022-10-07T21:11:02.194Z,9.37
2022-10-07T21:13:30.114Z,9.60
2022-10-07T21:15:57.143Z,9.43
2022-10-07T21:18:26.536Z,9.37
2022-10-07T21:20:56.700Z,9.13
2022-10-07T21:23:24.057Z,9.00
2022-10-07T21:25:51.858Z,8.70
2022-10-07T21:28:19.090Z,9.37
2022-10-07T21:30:55.602Z,9.53
2022-10-07T21:33:22.247Z,10.30
2022-10-07T21:35:48.758Z,9.73
2022-10-07T21:38:15.341Z,10.40
2022-10-07T21:40:42.414Z,9.40
2022-10-07T21:43:08.961Z,9.30
2022-10-07T21:45:35.546Z,8.47
2022-10-07T21:48:02.110Z,9.60
2022-10-07T21:50:28.715Z,9.73
2022-10-07T21:52:55.297Z,10.03
2022-10-07T21:55:21.864Z,8.97
2022-10-07T21:57:48.416Z,8.60
2022-10-07T22:00:15.947Z,8.57
2022-10-07T22:02:42.657Z,9.07
2022-10-07T22:05:11.525Z,8.93
2022-10-07T22:07:56.681Z,8.37
2022-10-07T22:10:23.266Z,8.17
2022-10-07T22:12:49.905Z,9.37
2022-10-07T22:15:17.128Z,8.53
2022-10-07T22:17:43.672Z,8.77
2022-10-07T22:20:10.256Z,8.70
2022-10-07T22:22:36.804Z,8.43
2022-10-07T22:25:03.660Z,8.70
2022-10-07T22:27:30.198Z,8.50
2022-10-07T22:29:57.048Z,9.10
2022-10-07T22:32:23.594Z,9.00
2022-10-07T22:35:08.384Z,9.07
2022-10-07T22:37:34.993Z,9.23
2022-10-07T22:40:01.589Z,8.50
2022-10-07T22:42:28.161Z,9.23
2022-10-07T22:44:54.693Z,9.70
2022-10-07T22:47:21.253Z,9.90
2022-10-07T22:49:48.352Z,9.83
2022-10-07T22:52:15.198Z,9.87
2022-10-07T22:54:41.753Z,9.70
2022-10-07T22:57:08.326Z,9.93
2022-10-07T22:59:34.983Z,10.20
2022-10-07T23:02:02.582Z,10.83
2022-10-07T23:04:29.104Z,10.87
2022-10-07T23:06:55.663Z,11.17
2022-10-07T23:09:22.301Z,10.57
2022-10-07T23:11:48.862Z,11.57
2022-10-07T23:14:16.026Z,11.20
2022-10-07T23:16:44.150Z,11.00
2022-10-07T23:19:10.771Z,10.63
2022-10-07T23:21:37.343Z,10.50
2022-10-07T23:24:07.799Z,10.07
2022-10-07T23:26:35.818Z,10.23
2022-10-07T23:29:03.229Z,10.63
2022-10-07T23:31:31.844Z,10.43
2022-10-07T23:33:59.706Z,10.50
2022-10-07T23:36:26.899Z,10.53
2022-10-07T23:38:53.659Z,10.60
2022-10-07T23:41:22.398Z,10.40
2022-10-07T23:43:50.475Z,11.70
2022-10-07T23:46:18.278Z,11.17
2022-10-07T23:48:44.885Z,10.80
2022-10-07T23:51:13.134Z,11.37
2022-10-07T23:53:39.918Z,11.70
2022-10-07T23:56:07.094Z,11.97
2022-10-07T23:58:34.346Z,11.87
